sensor_id;sensor_type;location;lat;lon;timestamp;P1;durP1;ratioP1;P2;durP2;ratioP2
63801;SDS011;49949;43.060;25.624;2023-04-09T00:01:41;44.28;;;23.92;;
63801;SDS011;49949;43.060;25.624;2023-04-09T00:04:06;42.78;;;22.63;;
63801;SDS011;49949;43.060;25.624;2023-04-09T00:06:32;35.60;;;19.77;;
63801;SDS011;49949;43.060;25.624;2023-04-09T00:08:57;35.60;;;19.65;;
63801;SDS011;49949;43.060;25.624;2023-04-09T00:11:23;36.50;;;19.98;;
63801;SDS011;49949;43.060;25.624;2023-04-09T00:13:49;37.50;;;21.23;;
63801;SDS011;49949;43.060;25.624;2023-04-09T00:16:15;33.38;;;18.98;;
63801;SDS011;49949;43.060;25.624;2023-04-09T00:18:41;28.38;;;16.33;;
63801;SDS011;49949;43.060;25.624;2023-04-09T00:21:06;27.58;;;16.88;;
63801;SDS011;49949;43.060;25.624;2023-04-09T00:23:33;29.10;;;16.92;;
63801;SDS011;49949;43.060;25.624;2023-04-09T00:25:59;29.10;;;16.67;;
63801;SDS011;49949;43.060;25.624;2023-04-09T00:28:24;34.92;;;18.83;;
63801;SDS011;49949;43.060;25.624;2023-04-09T00:30:50;38.03;;;20.52;;
63801;SDS011;49949;43.060;25.624;2023-04-09T00:33:16;39.20;;;21.48;;
63801;SDS011;49949;43.060;25.624;2023-04-09T00:35:41;32.85;;;19.05;;
63801;SDS011;49949;43.060;25.624;2023-04-09T00:38:07;35.17;;;19.23;;
63801;SDS011;49949;43.060;25.624;2023-04-09T00:40:33;29.55;;;18.30;;
63801;SDS011;49949;43.060;25.624;2023-04-09T00:42:59;28.77;;;16.30;;
63801;SDS011;49949;43.060;25.624;2023-04-09T00:45:26;31.48;;;17.02;;
63801;SDS011;49949;43.060;25.624;2023-04-09T00:47:52;25.50;;;16.35;;
63801;SDS011;49949;43.060;25.624;2023-04-09T00:50:17;28.38;;;16.55;;
63801;SDS011;49949;43.060;25.624;2023-04-09T00:52:44;33.55;;;17.15;;
63801;SDS011;49949;43.060;25.624;2023-04-09T00:55:09;36.80;;;19.55;;
63801;SDS011;49949;43.060;25.624;2023-04-09T00:57:37;31.92;;;19.83;;
63801;SDS011;49949;43.060;25.624;2023-04-09T01:00:03;27.63;;;17.00;;
63801;SDS011;49949;43.060;25.624;2023-04-09T01:02:31;24.63;;;15.90;;
63801;SDS011;49949;43.060;25.624;2023-04-09T01:04:57;25.92;;;15.27;;
63801;SDS011;49949;43.060;25.624;2023-04-09T01:10:16;22.70;;;13.35;;
63801;SDS011;49949;43.060;25.624;2023-04-09T01:15:47;30.42;;;14.85;;
63801;SDS011;49949;43.060;25.624;2023-04-09T01:21:22;29.20;;;16.45;;
63801;SDS011;49949;43.060;25.624;2023-04-09T01:29:11;36.38;;;17.38;;
63801;SDS011;49949;43.060;25.624;2023-04-09T01:31:39;29.13;;;16.90;;
63801;SDS011;49949;43.060;25.624;2023-04-09T01:34:08;26.92;;;16.13;;
63801;SDS011;49949;43.060;25.624;2023-04-09T01:36:35;23.35;;;14.43;;
63801;SDS011;49949;43.060;25.624;2023-04-09T01:39:03;25.02;;;14.95;;
63801;SDS011;49949;43.060;25.624;2023-04-09T01:41:30;26.42;;;15.52;;
63801;SDS011;49949;43.060;25.624;2023-04-09T01:43:57;26.42;;;15.75;;
63801;SDS011;49949;43.060;25.624;2023-04-09T01:46:25;23.23;;;15.60;;
63801;SDS011;49949;43.060;25.624;2023-04-09T01:48:52;31.63;;;16.95;;
63801;SDS011;49949;43.060;25.624;2023-04-09T01:51:19;30.15;;;16.50;;
63801;SDS011;49949;43.060;25.624;2023-04-09T01:53:45;31.77;;;17.15;;
63801;SDS011;49949;43.060;25.624;2023-04-09T01:56:11;24.95;;;15.00;;
63801;SDS011;49949;43.060;25.624;2023-04-09T01:58:36;30.30;;;15.45;;
63801;SDS011;49949;43.060;25.624;2023-04-09T02:01:08;28.13;;;15.25;;
63801;SDS011;49949;43.060;25.624;2023-04-09T02:03:48;27.52;;;15.43;;
63801;SDS011;49949;43.060;25.624;2023-04-09T02:08:59;24.50;;;14.05;;
63801;SDS011;49949;43.060;25.624;2023-04-09T02:11:27;29.65;;;14.57;;
63801;SDS011;49949;43.060;25.624;2023-04-09T02:13:54;29.63;;;16.83;;
63801;SDS011;49949;43.060;25.624;2023-04-09T02:16:22;24.05;;;14.07;;
63801;SDS011;49949;43.060;25.624;2023-04-09T02:18:52;25.08;;;15.07;;
63801;SDS011;49949;43.060;25.624;2023-04-09T02:21:21;35.08;;;19.38;;
63801;SDS011;49949;43.060;25.624;2023-04-09T02:23:47;39.80;;;17.52;;
63801;SDS011;49949;43.060;25.624;2023-04-09T02:26:13;41.78;;;21.67;;
63801;SDS011;49949;43.060;25.624;2023-04-09T02:28:38;39.17;;;22.92;;
63801;SDS011;49949;43.060;25.624;2023-04-09T02:31:04;42.10;;;21.13;;
63801;SDS011;49949;43.060;25.624;2023-04-09T02:33:30;33.42;;;17.33;;
63801;SDS011;49949;43.060;25.624;2023-04-09T02:35:55;33.08;;;19.20;;
63801;SDS011;49949;43.060;25.624;2023-04-09T02:38:21;36.75;;;19.30;;
63801;SDS011;49949;43.060;25.624;2023-04-09T02:40:47;32.40;;;19.05;;
63801;SDS011;49949;43.060;25.624;2023-04-09T02:43:12;36.63;;;18.10;;
63801;SDS011;49949;43.060;25.624;2023-04-09T02:45:38;37.13;;;18.20;;
63801;SDS011;49949;43.060;25.624;2023-04-09T02:48:04;31.77;;;16.73;;
63801;SDS011;49949;43.060;25.624;2023-04-09T02:50:30;35.38;;;18.35;;
63801;SDS011;49949;43.060;25.624;2023-04-09T02:52:55;45.75;;;20.27;;
63801;SDS011;49949;43.060;25.624;2023-04-09T02:55:21;43.65;;;19.83;;
63801;SDS011;49949;43.060;25.624;2023-04-09T02:57:47;36.40;;;18.40;;
63801;SDS011;49949;43.060;25.624;2023-04-09T03:00:14;36.80;;;18.70;;
63801;SDS011;49949;43.060;25.624;2023-04-09T03:02:39;28.48;;;17.45;;
63801;SDS011;49949;43.060;25.624;2023-04-09T03:05:05;36.28;;;18.55;;
63801;SDS011;49949;43.060;25.624;2023-04-09T03:07:31;37.92;;;17.60;;
63801;SDS011;49949;43.060;25.624;2023-04-09T03:09:57;35.25;;;17.70;;
63801;SDS011;49949;43.060;25.624;2023-04-09T03:12:23;28.60;;;17.08;;
63801;SDS011;49949;43.060;25.624;2023-04-09T03:14:48;33.05;;;19.02;;
63801;SDS011;49949;43.060;25.624;2023-04-09T03:17:14;33.05;;;17.65;;
63801;SDS011;49949;43.060;25.624;2023-04-09T03:19:42;32.05;;;17.45;;
63801;SDS011;49949;43.060;25.624;2023-04-09T03:22:08;25.30;;;14.88;;
63801;SDS011;49949;43.060;25.624;2023-04-09T03:24:34;25.17;;;15.88;;
63801;SDS011;49949;43.060;25.624;2023-04-09T03:26:59;24.48;;;13.65;;
63801;SDS011;49949;43.060;25.624;2023-04-09T03:29:25;20.63;;;12.38;;
63801;SDS011;49949;43.060;25.624;2023-04-09T03:31:51;19.92;;;11.95;;
63801;SDS011;49949;43.060;25.624;2023-04-09T03:34:16;31.50;;;15.80;;
63801;SDS011;49949;43.060;25.624;2023-04-09T03:36:42;28.40;;;14.65;;
63801;SDS011;49949;43.060;25.624;2023-04-09T03:39:08;28.85;;;15.02;;
63801;SDS011;49949;43.060;25.624;2023-04-09T03:41:33;23.90;;;12.93;;
63801;SDS011;49949;43.060;25.624;2023-04-09T03:43:59;21.98;;;13.50;;
63801;SDS011;49949;43.060;25.624;2023-04-09T03:46:25;21.88;;;13.48;;
63801;SDS011;49949;43.060;25.624;2023-04-09T03:48:50;23.20;;;13.02;;
63801;SDS011;49949;43.060;25.624;2023-04-09T03:51:16;21.58;;;11.95;;
63801;SDS011;49949;43.060;25.624;2023-04-09T03:53:43;22.17;;;11.23;;
63801;SDS011;49949;43.060;25.624;2023-04-09T03:56:09;23.02;;;11.52;;
63801;SDS011;49949;43.060;25.624;2023-04-09T03:58:35;21.35;;;12.50;;
63801;SDS011;49949;43.060;25.624;2023-04-09T04:01:01;20.77;;;12.15;;
63801;SDS011;49949;43.060;25.624;2023-04-09T04:03:27;23.10;;;12.10;;
63801;SDS011;49949;43.060;25.624;2023-04-09T04:05:53;39.70;;;14.07;;
63801;SDS011;49949;43.060;25.624;2023-04-09T04:08:23;28.30;;;14.75;;
63801;SDS011;49949;43.060;25.624;2023-04-09T04:10:49;23.73;;;14.10;;
63801;SDS011;49949;43.060;25.624;2023-04-09T04:13:15;28.55;;;12.75;;
63801;SDS011;49949;43.060;25.624;2023-04-09T04:15:40;35.10;;;14.18;;
63801;SDS011;49949;43.060;25.624;2023-04-09T04:18:07;26.15;;;14.40;;
63801;SDS011;49949;43.060;25.624;2023-04-09T04:20:34;34.70;;;15.55;;
63801;SDS011;49949;43.060;25.624;2023-04-09T04:23:01;31.55;;;15.75;;
63801;SDS011;49949;43.060;25.624;2023-04-09T04:25:27;32.45;;;15.55;;
63801;SDS011;49949;43.060;25.624;2023-04-09T04:27:52;28.88;;;14.75;;
63801;SDS011;49949;43.060;25.624;2023-04-09T04:30:19;33.10;;;14.43;;
63801;SDS011;49949;43.060;25.624;2023-04-09T04:32:45;43.25;;;20.13;;
63801;SDS011;49949;43.060;25.624;2023-04-09T04:35:11;31.75;;;17.08;;
63801;SDS011;49949;43.060;25.624;2023-04-09T04:37:37;27.60;;;13.98;;
63801;SDS011;49949;43.060;25.624;2023-04-09T04:40:05;23.75;;;12.43;;
63801;SDS011;49949;43.060;25.624;2023-04-09T04:42:31;22.95;;;13.57;;
63801;SDS011;49949;43.060;25.624;2023-04-09T04:44:58;27.67;;;16.45;;
63801;SDS011;49949;43.060;25.624;2023-04-09T04:47:24;32.38;;;18.23;;
63801;SDS011;49949;43.060;25.624;2023-04-09T04:49:50;34.55;;;20.15;;
63801;SDS011;49949;43.060;25.624;2023-04-09T04:52:15;38.90;;;22.02;;
63801;SDS011;49949;43.060;25.624;2023-04-09T04:54:41;38.45;;;20.98;;
63801;SDS011;49949;43.060;25.624;2023-04-09T04:57:07;28.38;;;15.93;;
63801;SDS011;49949;43.060;25.624;2023-04-09T04:59:35;31.38;;;16.52;;
63801;SDS011;49949;43.060;25.624;2023-04-09T05:02:02;29.20;;;15.63;;
63801;SDS011;49949;43.060;25.624;2023-04-09T05:04:28;32.47;;;15.48;;
63801;SDS011;49949;43.060;25.624;2023-04-09T05:06:54;28.90;;;15.70;;
63801;SDS011;49949;43.060;25.624;2023-04-09T05:09:20;27.13;;;13.18;;
63801;SDS011;49949;43.060;25.624;2023-04-09T05:11:45;26.95;;;11.95;;
63801;SDS011;49949;43.060;25.624;2023-04-09T05:14:11;32.97;;;12.57;;
63801;SDS011;49949;43.060;25.624;2023-04-09T05:16:37;22.60;;;13.82;;
63801;SDS011;49949;43.060;25.624;2023-04-09T05:19:03;28.30;;;13.77;;
63801;SDS011;49949;43.060;25.624;2023-04-09T05:21:28;32.65;;;15.30;;
63801;SDS011;49949;43.060;25.624;2023-04-09T05:23:55;31.17;;;17.25;;
63801;SDS011;49949;43.060;25.624;2023-04-09T05:26:21;30.00;;;17.65;;
63801;SDS011;49949;43.060;25.624;2023-04-09T05:28:47;29.33;;;17.48;;
63801;SDS011;49949;43.060;25.624;2023-04-09T05:31:13;25.67;;;16.38;;
63801;SDS011;49949;43.060;25.624;2023-04-09T05:33:39;31.15;;;19.08;;
63801;SDS011;49949;43.060;25.624;2023-04-09T05:36:13;30.38;;;19.30;;
63801;SDS011;49949;43.060;25.624;2023-04-09T05:38:40;39.45;;;19.70;;
63801;SDS011;49949;43.060;25.624;2023-04-09T05:41:06;33.65;;;20.05;;
63801;SDS011;49949;43.060;25.624;2023-04-09T05:43:32;40.13;;;21.92;;
63801;SDS011;49949;43.060;25.624;2023-04-09T05:45:58;31.65;;;18.48;;
63801;SDS011;49949;43.060;25.624;2023-04-09T05:48:23;27.95;;;18.52;;
63801;SDS011;49949;43.060;25.624;2023-04-09T05:50:49;34.35;;;18.33;;
63801;SDS011;49949;43.060;25.624;2023-04-09T05:53:19;58.30;;;21.77;;
63801;SDS011;49949;43.060;25.624;2023-04-09T05:55:45;41.45;;;22.20;;
63801;SDS011;49949;43.060;25.624;2023-04-09T05:58:11;32.72;;;20.65;;
63801;SDS011;49949;43.060;25.624;2023-04-09T06:00:37;38.00;;;19.88;;
63801;SDS011;49949;43.060;25.624;2023-04-09T06:03:03;33.03;;;20.25;;
63801;SDS011;49949;43.060;25.624;2023-04-09T06:05:29;35.17;;;20.52;;
63801;SDS011;49949;43.060;25.624;2023-04-09T06:07:55;34.33;;;21.25;;
63801;SDS011;49949;43.060;25.624;2023-04-09T06:10:21;37.50;;;20.63;;
63801;SDS011;49949;43.060;25.624;2023-04-09T06:12:48;36.65;;;21.45;;
63801;SDS011;49949;43.060;25.624;2023-04-09T06:15:13;37.42;;;21.95;;
63801;SDS011;49949;43.060;25.624;2023-04-09T06:17:39;37.05;;;20.85;;
63801;SDS011;49949;43.060;25.624;2023-04-09T06:20:05;35.65;;;20.98;;
63801;SDS011;49949;43.060;25.624;2023-04-09T06:22:31;33.10;;;21.02;;
63801;SDS011;49949;43.060;25.624;2023-04-09T06:24:57;35.50;;;21.63;;
63801;SDS011;49949;43.060;25.624;2023-04-09T06:27:22;31.90;;;21.35;;
63801;SDS011;49949;43.060;25.624;2023-04-09T06:29:48;39.25;;;22.75;;
63801;SDS011;49949;43.060;25.624;2023-04-09T06:32:14;42.63;;;23.15;;
63801;SDS011;49949;43.060;25.624;2023-04-09T06:34:40;41.00;;;23.17;;
63801;SDS011;49949;43.060;25.624;2023-04-09T06:37:06;34.92;;;21.77;;
63801;SDS011;49949;43.060;25.624;2023-04-09T06:39:31;36.63;;;21.73;;
63801;SDS011;49949;43.060;25.624;2023-04-09T06:41:57;33.08;;;22.15;;
63801;SDS011;49949;43.060;25.624;2023-04-09T06:44:23;38.03;;;21.60;;
63801;SDS011;49949;43.060;25.624;2023-04-09T06:46:49;34.08;;;21.13;;
63801;SDS011;49949;43.060;25.624;2023-04-09T06:49:15;37.42;;;21.23;;
63801;SDS011;49949;43.060;25.624;2023-04-09T06:51:40;37.70;;;21.58;;
63801;SDS011;49949;43.060;25.624;2023-04-09T06:54:06;36.53;;;19.35;;
63801;SDS011;49949;43.060;25.624;2023-04-09T06:56:32;39.40;;;19.65;;
63801;SDS011;49949;43.060;25.624;2023-04-09T06:58:58;28.75;;;16.73;;
63801;SDS011;49949;43.060;25.624;2023-04-09T07:01:24;25.63;;;14.93;;
63801;SDS011;49949;43.060;25.624;2023-04-09T07:03:50;34.92;;;18.75;;
63801;SDS011;49949;43.060;25.624;2023-04-09T07:06:16;28.30;;;19.25;;
63801;SDS011;49949;43.060;25.624;2023-04-09T07:08:42;26.02;;;18.75;;
63801;SDS011;49949;43.060;25.624;2023-04-09T07:11:07;24.65;;;13.82;;
63801;SDS011;49949;43.060;25.624;2023-04-09T07:13:33;18.58;;;12.02;;
63801;SDS011;49949;43.060;25.624;2023-04-09T07:15:59;16.08;;;10.98;;
63801;SDS011;49949;43.060;25.624;2023-04-09T07:18:25;14.63;;;9.57;;
63801;SDS011;49949;43.060;25.624;2023-04-09T07:20:51;14.68;;;10.40;;
63801;SDS011;49949;43.060;25.624;2023-04-09T07:23:17;16.95;;;10.95;;
63801;SDS011;49949;43.060;25.624;2023-04-09T07:25:43;7.45;;;5.82;;
63801;SDS011;49949;43.060;25.624;2023-04-09T07:28:09;8.15;;;6.20;;
63801;SDS011;49949;43.060;25.624;2023-04-09T07:30:35;5.57;;;4.03;;
63801;SDS011;49949;43.060;25.624;2023-04-09T07:33:01;5.32;;;4.20;;
63801;SDS011;49949;43.060;25.624;2023-04-09T07:35:27;9.02;;;6.38;;
63801;SDS011;49949;43.060;25.624;2023-04-09T07:37:53;10.73;;;7.00;;
63801;SDS011;49949;43.060;25.624;2023-04-09T07:40:18;12.85;;;9.32;;
63801;SDS011;49949;43.060;25.624;2023-04-09T07:42:44;14.10;;;9.52;;
63801;SDS011;49949;43.060;25.624;2023-04-09T07:45:10;12.25;;;8.90;;
63801;SDS011;49949;43.060;25.624;2023-04-09T07:47:36;12.18;;;9.52;;
63801;SDS011;49949;43.060;25.624;2023-04-09T07:50:04;14.10;;;8.00;;
63801;SDS011;49949;43.060;25.624;2023-04-09T07:52:31;13.02;;;7.75;;
63801;SDS011;49949;43.060;25.624;2023-04-09T07:54:57;13.45;;;9.70;;
63801;SDS011;49949;43.060;25.624;2023-04-09T07:57:22;10.40;;;7.40;;
63801;SDS011;49949;43.060;25.624;2023-04-09T07:59:48;10.65;;;7.50;;
63801;SDS011;49949;43.060;25.624;2023-04-09T08:02:13;13.25;;;7.10;;
63801;SDS011;49949;43.060;25.624;2023-04-09T08:04:39;12.65;;;7.05;;
63801;SDS011;49949;43.060;25.624;2023-04-09T08:07:05;17.35;;;7.28;;
63801;SDS011;49949;43.060;25.624;2023-04-09T08:09:31;9.65;;;7.15;;
63801;SDS011;49949;43.060;25.624;2023-04-09T08:11:57;14.38;;;7.20;;
63801;SDS011;49949;43.060;25.624;2023-04-09T08:14:23;10.57;;;7.65;;
63801;SDS011;49949;43.060;25.624;2023-04-09T08:16:48;15.60;;;8.32;;
63801;SDS011;49949;43.060;25.624;2023-04-09T08:19:15;11.35;;;7.93;;
63801;SDS011;49949;43.060;25.624;2023-04-09T08:21:41;43.58;;;9.38;;
63801;SDS011;49949;43.060;25.624;2023-04-09T08:24:08;19.00;;;7.10;;
63801;SDS011;49949;43.060;25.624;2023-04-09T08:26:37;12.43;;;7.03;;
63801;SDS011;49949;43.060;25.624;2023-04-09T08:29:03;10.10;;;6.78;;
63801;SDS011;49949;43.060;25.624;2023-04-09T08:31:29;17.45;;;6.35;;
63801;SDS011;49949;43.060;25.624;2023-04-09T08:33:58;8.77;;;5.10;;
63801;SDS011;49949;43.060;25.624;2023-04-09T08:36:24;10.75;;;5.43;;
63801;SDS011;49949;43.060;25.624;2023-04-09T08:38:50;10.68;;;5.65;;
63801;SDS011;49949;43.060;25.624;2023-04-09T08:41:18;6.82;;;5.00;;
63801;SDS011;49949;43.060;25.624;2023-04-09T08:43:46;3.90;;;2.58;;
63801;SDS011;49949;43.060;25.624;2023-04-09T08:46:13;9.13;;;5.53;;
63801;SDS011;49949;43.060;25.624;2023-04-09T08:48:41;9.18;;;5.20;;
63801;SDS011;49949;43.060;25.624;2023-04-09T08:51:11;6.75;;;4.90;;
63801;SDS011;49949;43.060;25.624;2023-04-09T08:53:37;8.45;;;4.60;;
63801;SDS011;49949;43.060;25.624;2023-04-09T08:56:04;8.32;;;4.78;;
63801;SDS011;49949;43.060;25.624;2023-04-09T08:58:30;5.43;;;4.18;;
63801;SDS011;49949;43.060;25.624;2023-04-09T09:00:55;4.50;;;4.03;;
63801;SDS011;49949;43.060;25.624;2023-04-09T09:03:21;5.47;;;3.83;;
63801;SDS011;49949;43.060;25.624;2023-04-09T09:05:47;4.60;;;3.15;;
63801;SDS011;49949;43.060;25.624;2023-04-09T09:08:21;4.88;;;3.65;;
63801;SDS011;49949;43.060;25.624;2023-04-09T09:10:48;5.20;;;3.15;;
63801;SDS011;49949;43.060;25.624;2023-04-09T09:15:48;5.97;;;3.53;;
63801;SDS011;49949;43.060;25.624;2023-04-09T09:21:23;4.03;;;2.88;;
63801;SDS011;49949;43.060;25.624;2023-04-09T09:23:51;2.67;;;2.42;;
63801;SDS011;49949;43.060;25.624;2023-04-09T09:26:18;2.72;;;2.47;;
63801;SDS011;49949;43.060;25.624;2023-04-09T09:28:51;2.78;;;2.58;;
63801;SDS011;49949;43.060;25.624;2023-04-09T09:31:18;3.50;;;2.90;;
63801;SDS011;49949;43.060;25.624;2023-04-09T09:33:46;2.92;;;2.60;;
63801;SDS011;49949;43.060;25.624;2023-04-09T09:36:12;2.67;;;2.47;;
63801;SDS011;49949;43.060;25.624;2023-04-09T09:38:56;3.05;;;2.60;;
63801;SDS011;49949;43.060;25.624;2023-04-09T09:41:23;2.85;;;2.65;;
63801;SDS011;49949;43.060;25.624;2023-04-09T09:43:50;3.20;;;2.90;;
63801;SDS011;49949;43.060;25.624;2023-04-09T09:46:16;2.90;;;2.70;;
63801;SDS011;49949;43.060;25.624;2023-04-09T09:48:42;2.50;;;2.30;;
63801;SDS011;49949;43.060;25.624;2023-04-09T09:51:10;2.05;;;1.88;;
63801;SDS011;49949;43.060;25.624;2023-04-09T09:53:37;3.30;;;2.17;;
63801;SDS011;49949;43.060;25.624;2023-04-09T09:56:05;2.85;;;2.65;;
63801;SDS011;49949;43.060;25.624;2023-04-09T09:58:37;7.25;;;2.90;;
63801;SDS011;49949;43.060;25.624;2023-04-09T10:01:08;2.00;;;1.83;;
63801;SDS011;49949;43.060;25.624;2023-04-09T10:03:37;2.67;;;2.47;;
63801;SDS011;49949;43.060;25.624;2023-04-09T10:06:05;3.58;;;2.75;;
63801;SDS011;49949;43.060;25.624;2023-04-09T10:08:32;3.03;;;2.58;;
63801;SDS011;49949;43.060;25.624;2023-04-09T10:11:01;2.42;;;2.22;;
63801;SDS011;49949;43.060;25.624;2023-04-09T10:13:29;2.88;;;2.67;;
63801;SDS011;49949;43.060;25.624;2023-04-09T10:16:19;2.43;;;2.20;;
63801;SDS011;49949;43.060;25.624;2023-04-09T10:18:47;2.15;;;1.95;;
63801;SDS011;49949;43.060;25.624;2023-04-09T10:21:21;2.63;;;2.42;;
63801;SDS011;49949;43.060;25.624;2023-04-09T10:24:11;3.15;;;2.95;;
63801;SDS011;49949;43.060;25.624;2023-04-09T10:26:41;3.20;;;2.90;;
63801;SDS011;49949;43.060;25.624;2023-04-09T10:29:09;3.05;;;2.28;;
63801;SDS011;49949;43.060;25.624;2023-04-09T10:34:27;2.75;;;2.40;;
63801;SDS011;49949;43.060;25.624;2023-04-09T10:36:55;2.95;;;2.75;;
63801;SDS011;49949;43.060;25.624;2023-04-09T10:39:29;4.13;;;2.80;;
63801;SDS011;49949;43.060;25.624;2023-04-09T10:41:57;3.38;;;3.00;;
63801;SDS011;49949;43.060;25.624;2023-04-09T10:44:24;4.07;;;2.95;;
63801;SDS011;49949;43.060;25.624;2023-04-09T10:46:51;3.20;;;2.90;;
63801;SDS011;49949;43.060;25.624;2023-04-09T10:51:50;3.33;;;3.03;;
63801;SDS011;49949;43.060;25.624;2023-04-09T10:59:35;3.78;;;2.28;;
63801;SDS011;49949;43.060;25.624;2023-04-09T11:02:02;3.03;;;2.72;;
63801;SDS011;49949;43.060;25.624;2023-04-09T11:04:36;2.92;;;2.55;;
63801;SDS011;49949;43.060;25.624;2023-04-09T11:07:08;2.95;;;2.63;;
63801;SDS011;49949;43.060;25.624;2023-04-09T11:09:34;3.53;;;2.50;;
63801;SDS011;49949;43.060;25.624;2023-04-09T11:12:00;4.05;;;2.30;;
63801;SDS011;49949;43.060;25.624;2023-04-09T11:14:27;2.72;;;2.53;;
63801;SDS011;49949;43.060;25.624;2023-04-09T11:16:53;3.88;;;1.92;;
63801;SDS011;49949;43.060;25.624;2023-04-09T11:19:19;3.05;;;2.75;;
63801;SDS011;49949;43.060;25.624;2023-04-09T11:21:46;2.83;;;2.63;;
63801;SDS011;49949;43.060;25.624;2023-04-09T11:24:12;6.63;;;2.63;;
63801;SDS011;49949;43.060;25.624;2023-04-09T11:26:38;2.88;;;2.60;;
63801;SDS011;49949;43.060;25.624;2023-04-09T11:29:07;2.83;;;2.63;;
63801;SDS011;49949;43.060;25.624;2023-04-09T11:31:33;4.28;;;2.80;;
63801;SDS011;49949;43.060;25.624;2023-04-09T11:34:00;3.05;;;2.55;;
63801;SDS011;49949;43.060;25.624;2023-04-09T11:36:26;2.97;;;1.65;;
63801;SDS011;49949;43.060;25.624;2023-04-09T11:38:52;2.45;;;2.15;;
63801;SDS011;49949;43.060;25.624;2023-04-09T11:41:34;4.97;;;2.60;;
63801;SDS011;49949;43.060;25.624;2023-04-09T11:44:01;3.00;;;2.80;;
63801;SDS011;49949;43.060;25.624;2023-04-09T11:46:32;2.57;;;2.37;;
63801;SDS011;49949;43.060;25.624;2023-04-09T11:48:59;2.97;;;2.70;;
63801;SDS011;49949;43.060;25.624;2023-04-09T11:51:25;3.42;;;2.58;;
63801;SDS011;49949;43.060;25.624;2023-04-09T11:53:52;1.40;;;1.30;;
63801;SDS011;49949;43.060;25.624;2023-04-09T11:56:18;2.58;;;2.38;;
63801;SDS011;49949;43.060;25.624;2023-04-09T11:58:47;2.90;;;2.70;;
63801;SDS011;49949;43.060;25.624;2023-04-09T12:01:13;2.63;;;2.42;;
63801;SDS011;49949;43.060;25.624;2023-04-09T12:03:39;3.10;;;2.90;;
63801;SDS011;49949;43.060;25.624;2023-04-09T12:06:05;2.97;;;2.67;;
63801;SDS011;49949;43.060;25.624;2023-04-09T12:08:33;3.03;;;2.60;;
63801;SDS011;49949;43.060;25.624;2023-04-09T12:11:10;2.70;;;2.50;;
63801;SDS011;49949;43.060;25.624;2023-04-09T12:13:40;7.72;;;3.35;;
63801;SDS011;49949;43.060;25.624;2023-04-09T12:16:12;3.65;;;3.33;;
63801;SDS011;49949;43.060;25.624;2023-04-09T12:18:39;3.83;;;3.05;;
63801;SDS011;49949;43.060;25.624;2023-04-09T12:21:05;2.97;;;2.65;;
63801;SDS011;49949;43.060;25.624;2023-04-09T12:23:31;3.05;;;2.85;;
63801;SDS011;49949;43.060;25.624;2023-04-09T12:25:57;4.68;;;2.85;;
63801;SDS011;49949;43.060;25.624;2023-04-09T12:28:26;3.20;;;3.00;;
63801;SDS011;49949;43.060;25.624;2023-04-09T12:30:52;3.50;;;3.20;;
63801;SDS011;49949;43.060;25.624;2023-04-09T12:33:19;3.28;;;2.90;;
63801;SDS011;49949;43.060;25.624;2023-04-09T12:35:45;3.28;;;2.97;;
63801;SDS011;49949;43.060;25.624;2023-04-09T12:38:11;4.72;;;2.88;;
63801;SDS011;49949;43.060;25.624;2023-04-09T12:40:37;2.95;;;2.53;;
63801;SDS011;49949;43.060;25.624;2023-04-09T12:43:03;5.72;;;3.13;;
63801;SDS011;49949;43.060;25.624;2023-04-09T12:45:29;3.50;;;2.50;;
63801;SDS011;49949;43.060;25.624;2023-04-09T12:47:55;2.75;;;2.50;;
63801;SDS011;49949;43.060;25.624;2023-04-09T12:50:22;5.43;;;2.70;;
63801;SDS011;49949;43.060;25.624;2023-04-09T12:52:48;3.10;;;2.80;;
63801;SDS011;49949;43.060;25.624;2023-04-09T12:55:14;2.80;;;2.50;;
63801;SDS011;49949;43.060;25.624;2023-04-09T12:57:41;3.15;;;2.85;;
63801;SDS011;49949;43.060;25.624;2023-04-09T13:00:08;4.30;;;3.38;;
63801;SDS011;49949;43.060;25.624;2023-04-09T13:02:34;4.57;;;3.20;;
63801;SDS011;49949;43.060;25.624;2023-04-09T13:05:00;3.30;;;3.08;;
63801;SDS011;49949;43.060;25.624;2023-04-09T13:07:26;3.35;;;3.05;;
63801;SDS011;49949;43.060;25.624;2023-04-09T13:09:53;7.07;;;3.10;;
63801;SDS011;49949;43.060;25.624;2023-04-09T13:12:19;6.63;;;3.05;;
63801;SDS011;49949;43.060;25.624;2023-04-09T13:14:46;3.67;;;3.38;;
63801;SDS011;49949;43.060;25.624;2023-04-09T13:17:12;5.95;;;4.78;;
63801;SDS011;49949;43.060;25.624;2023-04-09T13:19:38;8.70;;;5.45;;
63801;SDS011;49949;43.060;25.624;2023-04-09T13:22:04;3.53;;;3.22;;
63801;SDS011;49949;43.060;25.624;2023-04-09T13:24:32;3.38;;;3.08;;
63801;SDS011;49949;43.060;25.624;2023-04-09T13:27:04;3.47;;;3.25;;
63801;SDS011;49949;43.060;25.624;2023-04-09T13:29:33;3.00;;;2.72;;
63801;SDS011;49949;43.060;25.624;2023-04-09T13:31:58;3.40;;;3.10;;
63801;SDS011;49949;43.060;25.624;2023-04-09T13:34:29;4.68;;;3.47;;
63801;SDS011;49949;43.060;25.624;2023-04-09T13:36:55;4.78;;;3.33;;
63801;SDS011;49949;43.060;25.624;2023-04-09T13:39:21;3.03;;;2.83;;
63801;SDS011;49949;43.060;25.624;2023-04-09T13:41:46;3.70;;;3.38;;
63801;SDS011;49949;43.060;25.624;2023-04-09T13:44:12;5.32;;;4.30;;
63801;SDS011;49949;43.060;25.624;2023-04-09T13:46:38;3.83;;;3.53;;
63801;SDS011;49949;43.060;25.624;2023-04-09T13:49:04;3.45;;;3.15;;
63801;SDS011;49949;43.060;25.624;2023-04-09T13:51:29;7.13;;;3.58;;
63801;SDS011;49949;43.060;25.624;2023-04-09T13:53:55;3.75;;;3.38;;
63801;SDS011;49949;43.060;25.624;2023-04-09T13:56:21;3.75;;;3.45;;
63801;SDS011;49949;43.060;25.624;2023-04-09T13:58:47;4.00;;;3.60;;
63801;SDS011;49949;43.060;25.624;2023-04-09T14:01:13;2.80;;;2.58;;
63801;SDS011;49949;43.060;25.624;2023-04-09T14:03:38;3.70;;;2.67;;
63801;SDS011;49949;43.060;25.624;2023-04-09T14:06:05;7.95;;;3.20;;
63801;SDS011;49949;43.060;25.624;2023-04-09T14:08:32;4.10;;;3.53;;
63801;SDS011;49949;43.060;25.624;2023-04-09T14:10:58;6.85;;;3.20;;
63801;SDS011;49949;43.060;25.624;2023-04-09T14:13:24;3.05;;;2.85;;
63801;SDS011;49949;43.060;25.624;2023-04-09T14:15:50;2.88;;;2.45;;
63801;SDS011;49949;43.060;25.624;2023-04-09T14:18:15;3.50;;;3.10;;
63801;SDS011;49949;43.060;25.624;2023-04-09T14:20:41;3.55;;;3.25;;
63801;SDS011;49949;43.060;25.624;2023-04-09T14:23:06;3.60;;;3.30;;
63801;SDS011;49949;43.060;25.624;2023-04-09T14:25:32;3.25;;;2.97;;
63801;SDS011;49949;43.060;25.624;2023-04-09T14:27:58;4.07;;;3.40;;
63801;SDS011;49949;43.060;25.624;2023-04-09T14:30:24;3.33;;;3.03;;
63801;SDS011;49949;43.060;25.624;2023-04-09T14:32:49;3.33;;;3.10;;
63801;SDS011;49949;43.060;25.624;2023-04-09T14:35:15;3.30;;;3.00;;
63801;SDS011;49949;43.060;25.624;2023-04-09T14:37:41;3.88;;;3.53;;
63801;SDS011;49949;43.060;25.624;2023-04-09T14:40:07;4.00;;;2.65;;
63801;SDS011;49949;43.060;25.624;2023-04-09T14:42:33;2.83;;;2.50;;
63801;SDS011;49949;43.060;25.624;2023-04-09T14:44:58;3.05;;;2.85;;
63801;SDS011;49949;43.060;25.624;2023-04-09T14:47:24;3.22;;;2.45;;
63801;SDS011;49949;43.060;25.624;2023-04-09T14:49:50;3.17;;;2.75;;
63801;SDS011;49949;43.060;25.624;2023-04-09T14:52:15;6.20;;;3.70;;